Time;durP1;ratioP1;P1;durP2;ratioP2;P2;SDS_P1;SDS_P2;PMS_P1;PMS_P2;Temp;Humidity;BMP_temperature;BMP_pressure;BME280_temperature;BME280_humidity;BME280_pressure;Samples;Min_cycle;Max_cycle;Signal;HPM_P1;HPM_P2
2021/08/23 00:01:54;;;;;;;5.40;3.13;;;;;;;8.25;91.92;91295.69;5005682;28;20507;-84
2021/08/23 00:04:35;;;;;;;4.30;2.30;;;;;;;8.29;90.44;91294.00;5038073;28;20025;-84
2021/08/23 00:07:13;;;;;;;4.78;2.10;;;;;;;8.24;90.12;91298.59;5021267;28;20400;-84
2021/08/23 00:09:50;;;;;;;4.70;2.00;;;;;;;8.13;89.94;91296.28;5021484;28;20029;-83
2021/08/23 00:12:26;;;;;;;4.07;2.20;;;;;;;8.06;90.45;91298.56;5071296;28;20377;-84
2021/08/23 00:15:08;;;;;;;5.75;2.30;;;;;;;8.11;89.56;91298.41;5052237;28;20484;-84
2021/08/23 00:17:43;;;;;;;4.72;2.38;;;;;;;8.04;89.57;91290.31;5037951;28;20081;-84
2021/08/23 00:20:17;;;;;;;5.40;2.25;;;;;;;7.98;89.19;91295.94;5070613;28;20028;-82
2021/08/23 00:22:51;;;;;;;6.90;2.10;;;;;;;7.91;89.50;91291.19;5020662;28;20100;-84
2021/08/23 00:25:28;;;;;;;3.47;1.90;;;;;;;7.89;90.14;91291.50;5035416;28;20050;-84
2021/08/23 00:28:10;;;;;;;3.97;1.90;;;;;;;7.90;90.14;91280.06;5014328;28;20030;-84
2021/08/23 00:30:51;;;;;;;5.13;2.00;;;;;;;7.86;91.09;91280.97;4996912;28;20655;-84
2021/08/23 00:33:28;;;;;;;5.05;2.40;;;;;;;7.87;91.11;91282.50;5014296;28;20021;-84
2021/08/23 00:36:05;;;;;;;5.15;2.38;;;;;;;7.95;90.68;91288.75;4998245;28;20096;-84
2021/08/23 00:38:41;;;;;;;6.75;2.55;;;;;;;7.86;90.70;91284.31;5013419;28;20048;-84
2021/08/23 00:41:21;;;;;;;4.05;2.17;;;;;;;7.84;90.45;91280.50;4981319;28;20030;-84
2021/08/23 00:43:56;;;;;;;8.32;2.28;;;;;;;7.84;91.12;91272.72;5009479;28;20018;-84
2021/08/23 00:46:35;;;;;;;4.28;2.58;;;;;;;7.85;91.48;91282.03;5011726;28;20121;-84
2021/08/23 00:49:10;;;;;;;4.65;2.30;;;;;;;7.84;91.69;91275.31;5013576;28;20025;-84
2021/08/23 00:51:49;;;;;;;7.40;2.22;;;;;;;7.94;91.78;91271.66;4999793;28;20021;-83
2021/08/23 00:54:23;;;;;;;3.03;2.00;;;;;;;8.00;91.57;91263.44;5033202;28;20021;-84
2021/08/23 00:57:02;;;;;;;3.03;2.00;;;;;;;7.92;91.08;91266.03;4859399;28;4571415;-85
2021/08/23 00:59:34;;;;;;;4.15;2.20;;;;;;;7.88;90.95;91273.66;5017811;28;20029;-85
2021/08/23 01:02:41;;;;;;;4.18;2.10;;;;;;;7.96;90.42;91266.94;5019609;28;20028;-86
2021/08/23 01:05:27;;;;;;;5.28;2.17;;;;;;;7.89;91.55;91273.34;5038748;28;20021;-84
2021/08/23 01:08:32;;;;;;;3.92;2.50;;;;;;;7.81;91.27;91275.91;5004147;28;20116;-86
2021/08/23 01:11:14;;;;;;;3.10;2.13;;;;;;;7.69;90.79;91262.75;5022894;28;20128;-86
2021/08/23 01:13:59;;;;;;;6.90;2.00;;;;;;;7.82;90.73;91256.69;5047599;28;20044;-85
2021/08/23 01:16:38;;;;;;;4.38;1.90;;;;;;;7.84;89.50;91270.13;5052583;28;20439;-85
2021/08/23 01:19:09;;;;;;;4.70;1.95;;;;;;;7.92;88.85;91263.44;5036585;28;20025;-86
2021/08/23 01:21:46;;;;;;;3.03;2.00;;;;;;;7.57;89.49;91258.91;5036668;28;20029;-84
2021/08/23 01:24:27;;;;;;;6.93;2.20;;;;;;;7.60;90.32;91260.16;5039501;28;20017;-85
2021/08/23 01:27:05;;;;;;;2.80;1.77;;;;;;;7.49;89.95;91254.47;5010090;28;20033;-86
2021/08/23 01:29:41;;;;;;;4.65;1.92;;;;;;;7.51;89.23;91262.69;5020417;28;20028;-86
2021/08/23 01:32:21;;;;;;;3.30;1.90;;;;;;;7.39;89.50;91241.78;5021612;28;20024;-86
2021/08/23 01:35:02;;;;;;;3.85;1.67;;;;;;;7.39;89.86;91255.50;5038501;28;20075;-86
2021/08/23 01:37:41;;;;;;;4.50;1.67;;;;;;;7.35;89.84;91256.38;5002034;28;20034;-85
2021/08/23 01:40:19;;;;;;;6.82;2.92;;;;;;;7.38;90.69;91259.13;5002695;28;20025;-86
2021/08/23 01:42:56;;;;;;;4.45;2.20;;;;;;;7.49;91.47;91253.69;5002395;28;20077;-86
2021/08/23 01:45:33;;;;;;;5.65;1.92;;;;;;;7.48;90.63;91246.97;5003116;28;20101;-86
2021/08/23 01:48:12;;;;;;;5.70;2.20;;;;;;;7.41;91.46;91252.59;5019678;28;20025;-86
2021/08/23 01:50:48;;;;;;;3.63;2.22;;;;;;;7.45;91.79;91252.75;5003333;28;20025;-86
2021/08/23 01:53:31;;;;;;;3.08;2.08;;;;;;;7.51;91.81;91251.56;5018719;28;20071;-86
2021/08/23 01:56:08;;;;;;;3.42;2.30;;;;;;;7.54;91.96;91251.72;5028035;28;20088;-84
2021/08/23 01:58:47;;;;;;;3.72;2.35;;;;;;;7.51;90.83;91247.13;5004127;28;20091;-84
2021/08/23 02:01:25;;;;;;;4.10;2.10;;;;;;;7.50;91.65;91250.81;4981497;28;20033;-84
2021/08/23 02:04:08;;;;;;;4.05;2.05;;;;;;;7.45;91.67;91247.56;5031556;28;20046;-85
2021/08/23 02:06:41;;;;;;;4.13;2.20;;;;;;;7.63;91.32;91254.34;5031160;28;20028;-84
2021/08/23 02:09:33;;;;;;;4.18;2.28;;;;;;;7.53;91.61;91244.25;5039752;28;20020;-84
2021/08/23 02:12:12;;;;;;;4.20;2.20;;;;;;;7.54;91.84;91245.78;5073998;28;20024;-84
2021/08/23 02:14:51;;;;;;;3.33;2.00;;;;;;;7.39;91.30;91234.00;5023637;28;20031;-84
2021/08/23 02:17:29;;;;;;;2.88;1.75;;;;;;;7.39;90.90;91239.19;5040808;28;20103;-84
2021/08/23 02:20:12;;;;;;;4.07;1.88;;;;;;;7.39;90.89;91245.13;5055851;28;20078;-84
2021/08/23 02:22:43;;;;;;;3.40;2.20;;;;;;;7.34;90.59;91236.72;5026656;28;20108;-84
2021/08/23 02:25:22;;;;;;;2.92;1.90;;;;;;;7.31;90.30;91240.66;5002042;28;20029;-84
2021/08/23 02:27:59;;;;;;;5.78;1.73;;;;;;;7.15;89.95;91222.16;5004813;28;20025;-84
2021/08/23 02:30:34;;;;;;;8.73;2.38;;;;;;;7.14;90.01;91233.59;5019553;28;20040;-84
2021/08/23 02:33:17;;;;;;;5.20;1.83;;;;;;;7.10;90.52;91224.88;5020223;28;20029;-84
2021/08/23 02:35:51;;;;;;;4.32;2.10;;;;;;;7.05;90.32;91222.41;5036333;28;20029;-84
2021/08/23 02:38:26;;;;;;;3.90;1.63;;;;;;;7.29;90.75;91227.25;5004677;28;20045;-84
2021/08/23 02:41:02;;;;;;;5.38;2.42;;;;;;;7.19;90.97;91233.44;5020620;28;20033;-84
2021/08/23 02:43:42;;;;;;;5.70;2.25;;;;;;;7.15;91.53;91229.94;5036737;28;20021;-84
2021/08/23 02:46:21;;;;;;;4.65;1.85;;;;;;;7.04;90.34;91228.66;5004178;28;20104;-85
2021/08/23 02:48:57;;;;;;;2.65;1.55;;;;;;;7.09;89.97;91218.16;5038085;28;20021;-84
2021/08/23 02:51:38;;;;;;;3.38;1.90;;;;;;;7.04;88.99;91227.91;5021231;28;20017;-84
2021/08/23 02:54:16;;;;;;;6.35;1.67;;;;;;;6.92;89.30;91220.66;5021773;28;20029;-83
2021/08/23 02:56:56;;;;;;;2.90;1.48;;;;;;;6.87;89.68;91223.41;5004706;28;20032;-86
2021/08/23 02:59:33;;;;;;;3.60;1.80;;;;;;;6.87;90.50;91224.16;5020116;28;20029;-85
2021/08/23 03:02:12;;;;;;;3.13;1.88;;;;;;;6.83;91.19;91217.28;5021346;28;20617;-84
2021/08/23 03:04:48;;;;;;;3.75;1.75;;;;;;;6.94;91.48;91226.31;5005028;28;20108;-85
2021/08/23 03:07:28;;;;;;;3.78;2.20;;;;;;;7.17;91.98;91227.81;5020959;28;20032;-84
2021/08/23 03:10:12;;;;;;;5.13;1.83;;;;;;;7.01;90.44;91213.72;5021608;28;20033;-85
2021/08/23 03:12:46;;;;;;;4.65;1.63;;;;;;;7.00;90.32;91232.16;5022550;28;20021;-83
2021/08/23 03:15:19;;;;;;;4.00;1.63;;;;;;;6.87;90.09;91220.81;5021206;28;20742;-85
2021/08/23 03:17:55;;;;;;;5.50;2.05;;;;;;;6.83;91.13;91219.88;5037713;28;20500;-85
2021/08/23 03:20:34;;;;;;;4.53;1.65;;;;;;;6.96;92.75;91224.19;5037561;28;20112;-85
2021/08/23 03:23:13;;;;;;;2.65;1.77;;;;;;;6.93;92.48;91222.22;5005808;28;20473;-84
2021/08/23 03:25:40;;;;;;;3.33;1.48;;;;;;;6.95;92.62;91217.47;5022363;28;20017;-82
2021/08/23 03:28:22;;;;;;;3.45;1.70;;;;;;;7.10;92.43;91222.31;5021756;28;20473;-85
2021/08/23 03:30:58;;;;;;;3.97;1.67;;;;;;;7.09;92.10;91217.41;5021248;28;20029;-85
2021/08/23 03:33:39;;;;;;;4.55;1.90;;;;;;;6.90;91.30;91217.63;5006163;28;20033;-86
2021/08/23 03:36:16;;;;;;;6.80;1.77;;;;;;;6.86;90.81;91201.16;5006633;28;20432;-86
2021/08/23 03:38:56;;;;;;;3.75;2.00;;;;;;;6.88;89.81;91210.13;5023026;28;20021;-86
2021/08/23 03:41:31;;;;;;;5.95;1.73;;;;;;;6.86;90.23;91209.69;5005982;28;20024;-86
2021/08/23 03:44:10;;;;;;;4.13;2.13;;;;;;;6.79;91.17;91206.75;5007692;28;20094;-85
2021/08/23 03:46:51;;;;;;;4.60;1.70;;;;;;;6.80;90.52;91203.09;5059835;28;20032;-85
2021/08/23 03:49:28;;;;;;;4.30;1.80;;;;;;;6.80;90.94;91223.81;5059331;28;20069;-86
2021/08/23 03:52:11;;;;;;;5.50;1.73;;;;;;;6.75;90.64;91210.22;5026739;28;20028;-86
2021/08/23 03:54:47;;;;;;;4.63;1.70;;;;;;;6.74;89.63;91211.28;5027199;28;20044;-85
2021/08/23 03:57:28;;;;;;;2.72;1.70;;;;;;;6.74;89.53;91211.28;5071833;22;20050;-86
2021/08/23 04:00:08;;;;;;;7.15;1.90;;;;;;;6.64;90.53;91218.25;5016077;28;20029;-87
2021/08/23 04:02:43;;;;;;;4.45;1.85;;;;;;;6.55;91.12;91207.06;5019280;28;20029;-86
2021/08/23 04:05:16;;;;;;;4.05;2.20;;;;;;;6.68;91.21;91205.47;5035024;28;20108;-86
2021/08/23 04:07:57;;;;;;;2.38;1.40;;;;;;;6.65;90.67;91206.06;5001409;28;20025;-86
2021/08/23 04:10:35;;;;;;;2.60;1.63;;;;;;;6.54;89.49;91202.19;5018766;28;20079;-86
2021/08/23 04:13:13;;;;;;;6.43;1.95;;;;;;;6.55;90.33;91203.72;5001009;28;20477;-86
2021/08/23 04:15:58;;;;;;;2.80;1.80;;;;;;;6.69;90.67;91204.41;5001685;28;20044;-86
2021/08/23 04:18:36;;;;;;;2.97;1.75;;;;;;;6.65;90.94;91198.31;5003704;28;20021;-86
2021/08/23 04:21:16;;;;;;;4.00;1.70;;;;;;;6.73;90.78;91202.00;5003385;28;20021;-86
2021/08/23 04:24:00;;;;;;;5.95;1.92;;;;;;;6.65;91.16;91201.66;5002368;28;20025;-86
2021/08/23 04:26:35;;;;;;;2.97;1.90;;;;;;;6.80;91.64;91202.34;4987431;28;20072;-86
2021/08/23 04:29:08;;;;;;;8.98;2.78;;;;;;;6.94;92.71;91200.41;4980359;28;20033;-86
2021/08/23 04:31:48;;;;;;;4.85;2.08;;;;;;;6.91;92.26;91209.53;4947585;28;20026;-86
2021/08/23 04:34:31;;;;;;;6.22;2.80;;;;;;;6.89;92.70;91200.53;4964278;28;20029;-86
2021/08/23 04:37:08;;;;;;;3.47;2.05;;;;;;;6.95;92.88;91199.34;4962237;28;20030;-87
2021/08/23 04:39:47;;;;;;;4.50;2.20;;;;;;;7.01;91.75;91202.59;4978371;28;20026;-86
2021/08/23 04:42:29;;;;;;;4.25;2.38;;;;;;;7.02;92.36;91199.69;4979170;28;20045;-86
2021/08/23 04:44:57;;;;;;;4.72;2.45;;;;;;;7.01;92.33;91190.38;4979500;28;20022;-86
2021/08/23 04:47:35;;;;;;;3.28;2.10;;;;;;;7.06;92.77;91195.44;4945592;28;20034;-87
2021/08/23 04:50:14;;;;;;;4.22;2.20;;;;;;;7.35;93.02;91196.75;4950488;28;20100;-86
2021/08/23 04:53:03;;;;;;;3.83;2.53;;;;;;;7.36;93.10;91193.09;4962796;28;20113;-86
2021/08/23 04:55:43;;;;;;;4.18;2.50;;;;;;;7.37;93.74;91187.59;4963786;28;20026;-86
2021/08/23 04:58:26;;;;;;;3.72;2.20;;;;;;;7.49;92.14;91192.22;4978368;28;20041;-85
2021/08/23 05:00:58;;;;;;;4.60;2.42;;;;;;;7.36;92.15;91193.09;4979453;28;20061;-86
2021/08/23 05:03:42;;;;;;;5.05;2.60;;;;;;;7.48;92.36;91200.31;4978133;28;20026;-86
2021/08/23 05:06:20;;;;;;;3.67;2.15;;;;;;;7.43;91.79;91203.81;4978802;28;20430;-88
2021/08/23 05:08:59;;;;;;;5.25;2.72;;;;;;;7.41;90.43;91216.28;4963023;28;20460;-86
2021/08/23 05:11:38;;;;;;;4.82;2.00;;;;;;;7.38;90.51;91211.72;4962777;28;20026;-86
2021/08/23 05:14:14;;;;;;;5.38;2.78;;;;;;;7.65;91.06;91206.28;4978471;28;20033;-86
2021/08/23 05:16:54;;;;;;;6.82;2.75;;;;;;;7.88;92.05;91211.38;4947651;28;20030;-86
2021/08/23 05:19:34;;;;;;;6.88;2.67;;;;;;;7.99;91.82;91214.44;4979128;28;20025;-86
2021/08/23 05:22:06;;;;;;;7.05;3.13;;;;;;;7.93;92.10;91216.41;5004889;28;20088;-86
2021/08/23 05:24:47;;;;;;;4.13;2.90;;;;;;;7.97;92.67;91217.31;4982366;28;20025;-86
2021/08/23 05:27:23;;;;;;;3.78;2.30;;;;;;;7.95;91.63;91223.88;5001189;28;20049;-88
2021/08/23 05:30:05;;;;;;;3.33;2.08;;;;;;;7.93;91.08;91224.19;4980711;28;20030;-87
2021/08/23 05:32:36;;;;;;;5.90;2.08;;;;;;;7.95;89.81;91224.66;4997478;28;20021;-86
2021/08/23 05:35:13;;;;;;;6.05;2.50;;;;;;;8.03;90.15;91228.34;5012656;28;20028;-86
2021/08/23 05:37:50;;;;;;;5.22;2.60;;;;;;;8.20;90.66;91240.53;4997943;28;20022;-86
2021/08/23 05:40:26;;;;;;;3.97;3.00;;;;;;;8.34;91.43;91241.19;5016572;28;20029;-86
2021/08/23 05:43:01;;;;;;;5.05;2.88;;;;;;;8.43;91.85;91246.41;5016678;28;20029;-88
2021/08/23 05:45:36;;;;;;;4.28;2.70;;;;;;;8.41;92.38;91228.53;5016633;28;20394;-87
2021/08/23 05:48:08;;;;;;;9.25;2.80;;;;;;;8.63;91.71;91234.63;5014981;28;20026;-87
2021/08/23 05:50:39;;;;;;;6.43;3.00;;;;;;;8.63;92.29;91238.00;4996545;28;20034;-88
2021/08/23 05:53:06;;;;;;;6.45;3.78;;;;;;;8.67;92.57;91232.94;4964450;28;20022;-87
2021/08/23 05:55:32;;;;;;;7.97;3.20;;;;;;;8.68;91.83;91229.25;4992380;28;20081;-88
2021/08/23 05:58:01;;;;;;;7.72;3.00;;;;;;;8.75;91.13;91230.31;4965348;28;20042;-88
2021/08/23 06:00:29;;;;;;;8.90;3.90;;;;;;;8.85;91.26;91224.03;4963978;28;20030;-87
2021/08/23 06:02:58;;;;;;;10.93;4.43;;;;;;;8.96;91.88;91235.63;4962168;28;20121;-88
2021/08/23 06:05:24;;;;;;;7.32;3.25;;;;;;;9.01;91.53;91235.47;4962150;28;20098;-88
2021/08/23 06:07:54;;;;;;;9.52;3.17;;;;;;;9.03;92.74;91228.13;4945708;28;20030;-88
2021/08/23 06:10:22;;;;;;;7.75;3.45;;;;;;;9.13;93.37;91226.25;4962916;28;20022;-88
2021/08/23 06:12:51;;;;;;;8.82;3.40;;;;;;;9.16;92.82;91238.66;4964307;28;20027;-87
2021/08/23 06:15:17;;;;;;;6.80;3.40;;;;;;;9.26;93.72;91248.72;4963360;28;20402;-88
2021/08/23 06:17:44;;;;;;;10.55;3.30;;;;;;;9.52;92.58;91251.22;4962711;28;20037;-88
2021/08/23 06:20:16;;;;;;;10.15;4.25;;;;;;;9.57;92.77;91254.38;4963426;28;20037;-87
2021/08/23 06:22:49;;;;;;;11.27;4.55;;;;;;;9.72;92.00;91260.16;4976324;28;20030;-88
2021/08/23 06:25:21;;;;;;;9.98;4.00;;;;;;;9.66;91.81;91261.41;5000200;28;20433;-87
2021/08/23 06:27:50;;;;;;;8.18;3.30;;;;;;;9.60;90.93;91260.06;4981643;28;20026;-87
2021/08/23 06:30:16;;;;;;;9.25;2.97;;;;;;;9.57;90.38;91264.78;4981300;28;20033;-87
2021/08/23 06:32:45;;;;;;;6.85;3.45;;;;;;;9.56;89.89;91263.28;4981422;28;20034;-89
2021/08/23 06:35:13;;;;;;;7.63;3.75;;;;;;;9.65;90.79;91260.66;4979485;28;20025;-88
2021/08/23 06:37:41;;;;;;;11.18;3.40;;;;;;;9.69;90.58;91260.78;4971885;28;20030;-89
2021/08/23 06:40:09;;;;;;;5.40;3.22;;;;;;;9.77;89.62;91267.78;4978156;28;20026;-88
2021/08/23 06:42:37;;;;;;;7.45;3.70;;;;;;;9.85;90.42;91261.75;4956583;28;20023;-88
2021/08/23 06:45:05;;;;;;;6.35;3.10;;;;;;;9.94;89.61;91266.94;4977716;28;20058;-88
2021/08/23 06:47:32;;;;;;;7.30;3.58;;;;;;;9.99;89.68;91258.94;4963833;28;20091;-88
2021/08/23 06:49:58;;;;;;;7.07;3.58;;;;;;;10.03;89.95;91250.19;4991689;28;20068;-87
2021/08/23 06:52:27;;;;;;;7.80;3.10;;;;;;;10.12;90.72;91255.34;5000560;28;20033;-88
2021/08/23 06:54:57;;;;;;;6.60;3.25;;;;;;;10.13;90.50;91251.66;5000009;28;20562;-88
2021/08/23 06:57:27;;;;;;;4.55;2.83;;;;;;;10.16;89.27;91242.44;4984176;28;20478;-88
2021/08/23 06:59:53;;;;;;;6.03;3.22;;;;;;;10.45;87.71;91246.88;5000932;28;20116;-87
2021/08/23 07:02:19;;;;;;;6.15;2.80;;;;;;;10.60;87.37;91245.50;5000246;28;20099;-88
2021/08/23 07:04:49;;;;;;;7.88;3.20;;;;;;;10.45;87.08;91241.66;5017317;28;20055;-87
2021/08/23 07:07:18;;;;;;;6.45;3.05;;;;;;;10.46;88.92;91238.75;4985030;28;20039;-88
2021/08/23 07:09:50;;;;;;;8.50;2.90;;;;;;;10.74;87.90;91238.19;4983719;28;20032;-88
2021/08/23 07:12:23;;;;;;;5.38;3.00;;;;;;;10.67;88.42;91246.56;5003443;28;20078;-86
2021/08/23 07:14:49;;;;;;;14.82;3.85;;;;;;;10.82;89.66;91237.38;5018219;28;20087;-86
2021/08/23 07:17:16;;;;;;;4.63;2.72;;;;;;;10.96;90.16;91237.09;5033378;28;20014;-87
2021/08/23 07:19:48;;;;;;;6.85;3.08;;;;;;;11.09;89.11;91232.66;5024942;28;20076;-91
2021/08/23 07:22:18;;;;;;;5.20;3.17;;;;;;;11.23;89.71;91235.72;5041847;28;20036;-89
2021/08/23 07:24:46;;;;;;;4.28;2.75;;;;;;;11.34;88.70;91231.63;5040352;28;20029;-88
2021/08/23 07:27:13;;;;;;;5.90;3.30;;;;;;;11.43;88.25;91232.28;4965818;28;20026;-88
2021/08/23 07:29:39;;;;;;;6.45;3.08;;;;;;;11.58;88.53;91227.50;4995548;28;20033;-88
2021/08/23 07:32:06;;;;;;;6.90;3.00;;;;;;;11.70;88.51;91217.09;4976822;28;20097;-87
2021/08/23 07:34:35;;;;;;;4.90;2.63;;;;;;;11.82;86.72;91224.91;4984830;28;20041;-89
2021/08/23 07:37:03;;;;;;;6.85;2.60;;;;;;;12.02;84.53;91217.31;5010962;28;20026;-87
2021/08/23 07:39:29;;;;;;;7.03;2.55;;;;;;;12.13;83.65;91219.13;5012706;28;20060;-89
2021/08/23 07:41:57;;;;;;;5.45;2.35;;;;;;;12.20;83.55;91215.97;4979309;28;20109;-89
2021/08/23 07:44:25;;;;;;;5.63;2.90;;;;;;;12.26;86.27;91222.50;4995611;28;20116;-88
2021/08/23 07:46:51;;;;;;;5.07;2.67;;;;;;;12.29;84.30;91215.81;5013525;28;20030;-89
2021/08/23 07:49:17;;;;;;;6.72;2.83;;;;;;;12.37;84.73;91218.31;4964587;28;20034;-89
2021/08/23 07:51:43;;;;;;;5.93;2.65;;;;;;;12.49;84.67;91220.13;5012958;28;20033;-88
2021/08/23 07:54:09;;;;;;;6.63;2.60;;;;;;;12.52;85.38;91223.94;4996936;28;20058;-88
2021/08/23 07:56:36;;;;;;;6.60;2.90;;;;;;;12.78;86.08;91228.75;4995056;28;20043;-88
2021/08/23 07:59:03;;;;;;;5.57;2.72;;;;;;;12.84;85.71;91235.28;4979227;28;20026;-87
2021/08/23 08:01:32;;;;;;;5.40;2.78;;;;;;;12.92;85.35;91223.91;4975359;28;20017;-88
2021/08/23 08:03:58;;;;;;;7.38;2.60;;;;;;;13.02;83.19;91225.28;4945043;28;20061;-88
2021/08/23 08:06:24;;;;;;;12.68;2.72;;;;;;;13.13;82.56;91226.31;4973969;28;20053;-89
2021/08/23 08:08:49;;;;;;;10.88;2.80;;;;;;;13.27;81.41;91221.44;4976863;28;20030;-88
2021/08/23 08:11:15;;;;;;;3.60;2.40;;;;;;;13.34;80.65;91218.25;4959213;28;20395;-88
2021/08/23 08:13:40;;;;;;;8.80;2.65;;;;;;;13.49;81.98;91216.72;4960148;28;20025;-87
2021/08/23 08:16:06;;;;;;;4.78;2.58;;;;;;;13.59;80.80;91214.38;4983392;28;20057;-87
2021/08/23 08:18:33;;;;;;;4.38;2.10;;;;;;;13.68;79.45;91219.44;4976871;28;20501;-88
2021/08/23 08:21:00;;;;;;;6.00;2.65;;;;;;;13.81;78.97;91220.84;4976009;28;20022;-90
2021/08/23 08:23:29;;;;;;;4.60;2.03;;;;;;;13.85;78.21;91219.09;4976028;28;20030;-88
2021/08/23 08:25:55;;;;;;;4.78;2.33;;;;;;;14.22;81.79;91225.88;4963041;28;20065;-87
2021/08/23 08:28:23;;;;;;;4.45;2.33;;;;;;;14.39;80.68;91220.25;4974834;28;20026;-90
2021/08/23 08:30:53;;;;;;;8.65;2.60;;;;;;;14.47;80.59;91221.16;4991479;28;20590;-87
2021/08/23 08:33:21;;;;;;;4.75;2.25;;;;;;;14.49;79.64;91222.34;4975046;28;20368;-89
2021/08/23 08:35:46;;;;;;;5.70;2.25;;;;;;;14.67;78.55;91225.34;4978921;28;20017;-88
2021/08/23 08:38:12;;;;;;;6.53;2.42;;;;;;;14.72;78.00;91227.69;4994570;28;20807;-88
2021/08/23 08:40:38;;;;;;;5.13;2.30;;;;;;;14.85;77.24;91230.19;4994261;28;20474;-87
2021/08/23 08:43:04;;;;;;;5.93;2.60;;;;;;;14.93;79.28;91229.19;4977958;28;20064;-89
2021/08/23 08:45:32;;;;;;;5.53;2.08;;;;;;;14.87;74.20;91222.69;4979167;28;20061;-89
2021/08/23 08:48:05;;;;;;;6.63;2.72;;;;;;;14.94;77.52;91225.47;4979118;28;20494;-88
2021/08/23 08:50:35;;;;;;;6.70;2.67;;;;;;;14.91;76.91;91228.78;4994977;28;20089;-88
2021/08/23 08:53:06;;;;;;;7.70;2.60;;;;;;;15.08;76.06;91228.34;4995137;28;20022;-88
2021/08/23 08:55:36;;;;;;;6.03;2.20;;;;;;;14.99;74.81;91233.06;4962375;28;20030;-88
2021/08/23 08:58:06;;;;;;;5.13;2.25;;;;;;;15.07;73.43;91226.84;4978569;28;20162;-87
2021/08/23 09:00:36;;;;;;;4.10;2.30;;;;;;;15.17;72.94;91230.78;4994223;28;20101;-89
2021/08/23 09:03:02;;;;;;;7.32;2.30;;;;;;;15.20;72.61;91233.47;4994524;28;20046;-88
2021/08/23 09:05:43;;;;;;;5.05;2.40;;;;;;;15.09;74.39;91235.13;4977894;28;20025;-87
2021/08/23 09:08:08;;;;;;;6.82;2.08;;;;;;;14.99;71.93;91231.19;4994510;28;20054;-88
2021/08/23 09:10:36;;;;;;;3.05;1.95;;;;;;;15.17;73.86;91231.53;4977862;28;20080;-89
2021/08/23 09:13:12;;;;;;;7.85;2.15;;;;;;;15.27;72.85;91230.19;4996428;28;20037;-88
2021/08/23 09:15:49;;;;;;;8.25;2.22;;;;;;;15.24;70.57;91231.66;4998772;28;20025;-89
2021/08/23 09:18:19;;;;;;;6.55;2.40;;;;;;;15.27;72.34;91238.84;5000362;28;20034;-88
2021/08/23 09:20:54;;;;;;;6.63;2.30;;;;;;;15.46;73.08;91234.66;4982433;28;20029;-88
2021/08/23 09:23:20;;;;;;;5.25;2.08;;;;;;;15.41;70.85;91245.44;4967513;28;20379;-90
2021/08/23 09:25:47;;;;;;;3.80;1.92;;;;;;;15.56;73.08;91236.69;4978395;28;20057;-90
2021/08/23 09:28:17;;;;;;;6.68;2.05;;;;;;;15.50;70.32;91243.34;4977472;28;20034;-90
2021/08/23 09:30:56;;;;;;;5.28;1.55;;;;;;;15.35;68.33;91241.59;4979941;28;20057;-88
2021/08/23 09:33:23;;;;;;;7.15;1.58;;;;;;;15.30;65.37;91240.00;4981238;28;20019;-88
2021/08/23 09:35:51;;;;;;;4.63;1.70;;;;;;;15.05;64.34;91250.03;4967427;28;20034;-88
2021/08/23 09:38:18;;;;;;;5.63;1.98;;;;;;;14.82;66.53;91237.63;4978355;28;20034;-88
2021/08/23 09:40:48;;;;;;;4.47;1.73;;;;;;;14.98;65.74;91244.66;4962136;28;20564;-90
2021/08/23 09:43:18;;;;;;;5.90;1.95;;;;;;;15.08;66.49;91257.22;4978214;28;20057;-87
2021/08/23 09:45:47;;;;;;;5.03;1.77;;;;;;;15.01;67.52;91249.22;4978376;28;20072;-89
2021/08/23 09:48:15;;;;;;;3.75;2.10;;;;;;;15.27;66.10;91251.97;4978788;28;20018;-88
2021/08/23 09:50:48;;;;;;;4.32;2.10;;;;;;;15.24;64.05;91250.03;4961704;28;20038;-87
2021/08/23 09:53:16;;;;;;;3.75;1.58;;;;;;;15.44;66.67;91249.97;4978181;28;20030;-87
2021/08/23 09:55:47;;;;;;;6.97;2.00;;;;;;;15.06;65.35;91251.56;4961923;28;20053;-88
2021/08/23 09:58:15;;;;;;;4.97;1.80;;;;;;;15.24;67.39;91247.41;5053734;23;20044;-86
2021/08/23 10:00:43;;;;;;;3.15;1.50;;;;;;;15.24;64.44;91250.03;5056993;28;20029;-86
2021/08/23 10:03:17;;;;;;;4.25;1.60;;;;;;;15.16;64.78;91250.22;5057022;28;20039;-86
2021/08/23 10:05:47;;;;;;;4.45;1.38;;;;;;;14.87;64.53;91254.19;5042144;28;20024;-86
2021/08/23 10:08:17;;;;;;;5.07;1.73;;;;;;;15.21;67.82;91240.22;5022055;28;20112;-87
2021/08/23 10:10:46;;;;;;;6.35;2.30;;;;;;;15.27;69.71;91249.34;5036653;28;20021;-86
2021/08/23 10:13:14;;;;;;;5.15;2.15;;;;;;;15.33;68.76;91249.03;5036917;28;20021;-86
2021/08/23 10:15:41;;;;;;;4.10;1.42;;;;;;;15.00;63.80;91252.94;5038440;28;20087;-85
2021/08/23 10:18:09;;;;;;;4.32;1.45;;;;;;;15.02;65.17;91250.75;5037474;28;20064;-87
2021/08/23 10:20:39;;;;;;;4.38;1.60;;;;;;;14.91;64.52;91255.00;5038553;28;20052;-87
2021/08/23 10:23:05;;;;;;;4.60;1.70;;;;;;;14.73;64.43;91254.66;5038872;28;20025;-87
2021/08/23 10:25:34;;;;;;;4.10;1.67;;;;;;;14.68;66.76;91253.09;5038933;28;20116;-86
2021/08/23 10:28:06;;;;;;;5.72;1.70;;;;;;;14.72;66.65;91253.91;5022592;28;20112;-86
2021/08/23 10:30:33;;;;;;;4.75;2.15;;;;;;;14.95;67.97;91248.75;5004302;28;20504;-86
2021/08/23 10:33:10;;;;;;;6.35;2.13;;;;;;;15.05;66.00;91255.28;5020531;28;20037;-87
2021/08/23 10:35:58;;;;;;;4.82;1.80;;;;;;;14.94;66.00;91247.22;5021821;28;20020;-85
2021/08/23 10:38:30;;;;;;;6.35;2.05;;;;;;;14.95;67.18;91250.63;5040077;28;20438;-86
2021/08/23 10:41:10;;;;;;;6.63;2.20;;;;;;;15.12;68.25;91244.91;5021777;28;20161;-86
2021/08/23 10:43:51;;;;;;;5.22;2.03;;;;;;;15.35;66.00;91244.97;5021486;28;20020;-86
2021/08/23 10:46:26;;;;;;;4.63;1.63;;;;;;;15.12;65.33;91239.66;5023023;28;20385;-87
2021/08/23 10:48:53;;;;;;;6.65;1.48;;;;;;;15.11;64.30;91240.78;5005442;28;20128;-85
2021/08/23 10:51:37;;;;;;;5.60;2.35;;;;;;;15.19;64.34;91237.16;5024637;28;20068;-86
2021/08/23 10:54:19;;;;;;;3.72;1.88;;;;;;;15.27;64.52;91241.47;5017001;28;20155;-86
2021/08/23 10:56:44;;;;;;;4.30;2.10;;;;;;;15.30;65.49;91232.88;5020439;28;20057;-86
2021/08/23 10:59:16;;;;;;;5.03;2.10;;;;;;;15.60;65.99;91242.75;5020525;28;20029;-87
2021/08/23 11:01:52;;;;;;;6.57;2.00;;;;;;;15.25;65.81;91238.41;5018784;28;20045;-86
2021/08/23 11:04:27;;;;;;;6.03;1.65;;;;;;;15.56;66.63;91226.19;5027642;28;20033;-87
2021/08/23 11:06:52;;;;;;;4.60;2.35;;;;;;;15.84;66.62;91233.03;5027289;28;20033;-85
2021/08/23 11:09:19;;;;;;;3.00;1.67;;;;;;;16.01;65.65;91241.19;5013588;28;20086;-85
2021/08/23 11:11:47;;;;;;;6.60;1.77;;;;;;;15.72;64.28;91228.72;5015476;28;20022;-85
2021/08/23 11:14:17;;;;;;;3.10;1.67;;;;;;;15.66;66.55;91238.78;5014735;28;20026;-85
2021/08/23 11:16:54;;;;;;;5.93;2.00;;;;;;;15.53;64.77;91232.88;5015182;28;20060;-86
2021/08/23 11:19:25;;;;;;;3.28;2.00;;;;;;;15.34;64.63;91245.31;5030699;28;20030;-86
2021/08/23 11:22:00;;;;;;;6.07;2.30;;;;;;;15.51;66.04;91242.22;5015069;28;20109;-86
2021/08/23 11:24:28;;;;;;;4.50;1.80;;;;;;;15.47;65.19;91236.91;4999141;28;20049;-85
2021/08/23 11:27:01;;;;;;;5.20;2.00;;;;;;;15.60;66.01;91237.50;5025921;28;20026;-86
2021/08/23 11:29:27;;;;;;;4.30;2.25;;;;;;;15.53;64.21;91237.38;5014686;28;20036;-85
2021/08/23 11:32:07;;;;;;;4.65;2.17;;;;;;;15.87;65.24;91237.59;5014108;28;20037;-86
2021/08/23 11:34:37;;;;;;;5.72;2.28;;;;;;;15.74;63.02;91243.03;5020901;28;20006;-88
2021/08/23 11:37:08;;;;;;;5.00;1.85;;;;;;;15.47;63.44;91238.78;5023457;28;20037;-86
2021/08/23 11:39:36;;;;;;;6.50;1.70;;;;;;;16.00;63.80;91241.53;5015815;28;20056;-86
2021/08/23 11:42:04;;;;;;;4.50;1.88;;;;;;;16.24;61.53;91241.13;5015312;28;20152;-86
2021/08/23 11:44:30;;;;;;;3.05;1.73;;;;;;;16.76;65.17;91235.47;5017669;28;20497;-86
2021/08/23 11:47:01;;;;;;;5.95;1.70;;;;;;;17.04;64.31;91235.78;5017779;28;20083;-86
2021/08/23 11:49:32;;;;;;;5.60;1.60;;;;;;;17.13;61.37;91228.34;5002313;28;20028;-86
2021/08/23 11:52:17;;;;;;;5.32;1.88;;;;;;;16.94;60.59;91228.53;5001773;28;20033;-86
2021/08/23 11:54:53;;;;;;;;;;;;;;;16.91;59.65;91227.38;4999687;28;20075;-86
2021/08/23 11:57:19;;;;;;;4.03;1.48;;;;;;;16.53;62.01;91231.00;5032281;28;20396;-85
2021/08/23 12:00:01;;;;;;;3.35;1.63;;;;;;;16.63;61.33;91225.13;5014482;28;20025;-86
2021/08/23 12:02:31;;;;;;;5.25;1.83;;;;;;;16.32;61.22;91236.72;5025142;28;20029;-85
2021/08/23 12:05:12;;;;;;;5.30;2.05;;;;;;;16.11;62.49;91231.94;4999930;28;20029;-85
2021/08/23 12:07:55;;;;;;;3.45;1.60;;;;;;;16.14;63.15;91236.47;5015667;28;20032;-84
2021/08/23 12:10:32;;;;;;;5.95;1.80;;;;;;;16.00;63.85;91238.91;4999399;28;20029;-85